Terminal Aerodrome Forecast
Issued by NWS Cleveland, OH

Home | Current Version | Previous Version | Graphics & Text | Print | Product List | Glossary On
Versions: 1 2 3 4 5 6 7 8 9 10 11 12 13 14 15 16 17 18 19 20 21
000
FTUS41 KCLE 272100 AAA
TAFCAK
TAF AMD
KCAK 272128Z 2721/2818 21012G18KT P6SM -SHRA BKN035 OVC060
     FM280100 22010KT 4SM -SHRA SCT015 OVC025
      TEMPO 2802/2804 OVC015
     FM280400 23010KT 4SM -SHRA BKN007 OVC015
     FM280900 29008KT 4SM -SHRA OVC007
     FM281300 31010KT 6SM BR VCSH OVC018
     FM281700 33010KT P6SM SCT012 OVC030=

USA.gov is the U.S. government's official web portal to all federal, state and local government web resources and services.